createdAt,value
2019-01-30T07:18:23.508Z,71.90
2019-01-30T07:23:50.317Z,63.15
2019-01-30T07:26:31.896Z,66.10
2019-01-30T07:29:12.399Z,68.87
2019-01-30T07:31:53.047Z,60.90
2019-01-30T07:37:13.412Z,59.77
2019-01-30T07:39:54.694Z,59.53
2019-01-30T07:42:35.357Z,67.17
2019-01-30T07:45:16.714Z,67.82
2019-01-30T07:47:57.312Z,59.55
2019-01-30T07:50:38.553Z,58.52
2019-01-30T07:53:19.397Z,60.33
2019-01-30T07:58:46.506Z,54.70
2019-01-30T08:04:12.369Z,56.02
2019-01-30T08:06:54.469Z,60.27
2019-01-30T08:09:35.309Z,62.03
2019-01-30T08:12:16.069Z,52.87
2019-01-30T08:15:08.569Z,62.50
2019-01-30T08:17:37.274Z,51.98
2019-01-30T08:20:07.625Z,58.90
2019-01-30T08:22:36.340Z,56.65
2019-01-30T08:25:06.308Z,60.17
2019-01-30T08:27:35.282Z,63.03
2019-01-30T08:30:05.763Z,51.70
2019-01-30T08:32:34.929Z,53.93
2019-01-30T08:35:04.446Z,60.43
2019-01-30T08:37:33.196Z,50.67
2019-01-30T08:40:01.894Z,55.23
2019-01-30T08:42:30.573Z,52.17
2019-01-30T08:44:59.267Z,48.33
2019-01-30T08:47:27.985Z,57.53
2019-01-30T08:49:56.738Z,51.37
2019-01-30T08:52:25.414Z,50.47
2019-01-30T08:54:54.109Z,51.43
2019-01-30T08:57:22.784Z,57.10
2019-01-30T08:59:51.475Z,49.43
2019-01-30T09:02:21.126Z,49.63
2019-01-30T09:04:50.040Z,43.67
2019-01-30T09:07:18.712Z,44.60
2019-01-30T09:09:47.629Z,46.20
2019-01-30T09:12:16.376Z,42.03
2019-01-30T09:14:45.070Z,49.53
2019-01-30T09:17:13.757Z,43.33
2019-01-30T09:19:42.433Z,44.30
2019-01-30T09:22:11.129Z,41.77
2019-01-30T09:24:39.817Z,35.57
2019-01-30T09:27:08.501Z,43.23
2019-01-30T09:29:37.190Z,42.73
2019-01-30T09:32:05.872Z,34.77
2019-01-30T09:34:34.561Z,37.77
2019-01-30T09:37:03.245Z,33.27
2019-01-30T09:39:31.939Z,38.30
2019-01-30T09:42:00.677Z,36.70
2019-01-30T09:44:29.359Z,36.83
2019-01-30T09:46:58.077Z,34.03
2019-01-30T09:49:26.826Z,31.90
2019-01-30T09:51:55.596Z,30.53
2019-01-30T09:54:24.278Z,28.90
2019-01-30T09:56:52.949Z,25.17
2019-01-30T09:59:21.768Z,33.50
2019-01-30T10:01:50.465Z,29.37
2019-01-30T10:04:19.570Z,26.70
2019-01-30T10:06:48.511Z,28.87
2019-01-30T10:09:17.198Z,27.83
2019-01-30T10:11:45.887Z,28.53
2019-01-30T10:14:14.557Z,30.57
2019-01-30T10:16:43.280Z,29.80
2019-01-30T10:19:11.919Z,29.80
2019-01-30T10:21:40.716Z,30.73
2019-01-30T10:24:09.351Z,28.87
2019-01-30T10:26:38.047Z,31.57
2019-01-30T10:29:06.713Z,28.53
2019-01-30T10:31:35.405Z,33.23
2019-01-30T10:34:04.174Z,35.50
2019-01-30T10:36:32.867Z,27.93
2019-01-30T10:39:01.537Z,32.20
2019-01-30T10:41:30.296Z,29.50
2019-01-30T10:43:58.967Z,36.10
2019-01-30T10:46:27.644Z,31.70
2019-01-30T10:48:56.325Z,33.47
2019-01-30T10:51:25.090Z,30.03
2019-01-30T10:53:53.758Z,33.97
2019-01-30T10:56:22.444Z,31.93
2019-01-30T10:58:51.111Z,29.23
2019-01-30T11:01:19.796Z,31.03
2019-01-30T11:03:57.120Z,29.20
2019-01-30T11:06:18.871Z,30.50
2019-01-30T11:08:47.642Z,36.97
2019-01-30T11:11:16.317Z,28.20
2019-01-30T11:13:44.991Z,30.30
2019-01-30T11:16:13.679Z,30.20
2019-01-30T11:18:42.487Z,29.93
2019-01-30T11:21:11.166Z,30.70
2019-01-30T11:23:39.842Z,28.17
2019-01-30T11:26:08.516Z,26.87
2019-01-30T11:28:37.265Z,29.20
2019-01-30T11:31:05.953Z,30.23
2019-01-30T11:33:34.639Z,27.70
2019-01-30T11:36:03.486Z,22.90
2019-01-30T11:38:32.161Z,23.37
2019-01-30T11:41:00.838Z,27.27
2019-01-30T11:43:29.521Z,21.33
2019-01-30T11:45:58.197Z,22.90
2019-01-30T11:48:26.885Z,22.53
2019-01-30T11:50:55.574Z,22.40
2019-01-30T11:53:24.335Z,26.10
2019-01-30T11:55:53.026Z,22.53
2019-01-30T11:58:21.701Z,30.93
2019-01-30T12:01:03.364Z,24.90
2019-01-30T12:03:31.709Z,26.07
2019-01-30T12:06:00.458Z,29.90
2019-01-30T12:08:29.220Z,23.83
2019-01-30T12:10:57.894Z,29.57
2019-01-30T12:13:26.649Z,25.97
2019-01-30T12:15:55.331Z,25.37
2019-01-30T12:18:24.016Z,22.43
2019-01-30T12:20:52.706Z,22.73
2019-01-30T12:23:21.752Z,25.60
2019-01-30T12:25:50.421Z,24.93
2019-01-30T12:28:19.180Z,26.50
2019-01-30T12:30:47.859Z,22.67
2019-01-30T12:33:16.760Z,20.10
2019-01-30T12:35:45.433Z,19.80
2019-01-30T12:38:14.116Z,27.67
2019-01-30T12:40:42.784Z,20.47
2019-01-30T12:43:11.486Z,23.13
2019-01-30T12:45:40.240Z,26.10
2019-01-30T12:48:10.787Z,20.87
2019-01-30T12:50:39.891Z,25.43
2019-01-30T12:53:08.586Z,22.10
2019-01-30T12:55:37.393Z,25.50
2019-01-30T12:58:06.558Z,23.60
2019-01-30T13:00:37.783Z,21.20
2019-01-30T13:03:06.814Z,26.03
2019-01-30T13:05:35.639Z,23.83
2019-01-30T13:08:05.185Z,22.87
2019-01-30T13:10:33.864Z,26.27
2019-01-30T13:13:02.563Z,23.17
2019-01-30T13:15:31.310Z,21.60
2019-01-30T13:18:00.192Z,24.47
2019-01-30T13:20:28.944Z,21.23
2019-01-30T13:22:57.705Z,18.17
2019-01-30T13:25:31.593Z,21.57
2019-01-30T13:28:00.322Z,22.20
2019-01-30T13:30:39.944Z,20.10
2019-01-30T13:33:11.349Z,18.20
2019-01-30T13:35:40.364Z,17.43
2019-01-30T13:38:09.411Z,21.77
2019-01-30T13:40:40.205Z,19.37
2019-01-30T13:43:09.137Z,20.07
2019-01-30T13:45:37.881Z,20.00
2019-01-30T13:48:10.368Z,21.83
2019-01-30T13:50:39.192Z,22.63
2019-01-30T13:53:08.022Z,23.77
2019-01-30T13:55:36.691Z,21.70
2019-01-30T13:58:05.471Z,24.70
2019-01-30T14:00:35.803Z,19.77
2019-01-30T14:03:06.532Z,18.83
2019-01-30T14:05:35.269Z,18.73
2019-01-30T14:08:04.671Z,19.57
2019-01-30T14:10:33.361Z,22.90
2019-01-30T14:13:02.105Z,20.23
2019-01-30T14:15:30.924Z,18.27
2019-01-30T14:17:59.668Z,17.30
2019-01-30T14:20:28.438Z,20.90
2019-01-30T14:22:57.196Z,18.17
2019-01-30T14:25:26.079Z,17.60
2019-01-30T14:27:54.906Z,17.23
2019-01-30T14:30:26.081Z,20.10
2019-01-30T14:32:54.865Z,18.13
2019-01-30T14:35:25.342Z,16.27
2019-01-30T14:37:54.005Z,20.43
2019-01-30T14:40:22.965Z,18.00
2019-01-30T14:42:51.753Z,16.93
2019-01-30T14:45:20.813Z,19.53
2019-01-30T14:47:50.017Z,20.93
2019-01-30T14:50:23.468Z,21.57
2019-01-30T14:52:52.290Z,17.53
2019-01-30T14:55:21.618Z,15.83
2019-01-30T14:57:51.680Z,20.53
2019-01-30T15:00:22.634Z,19.17
2019-01-30T15:02:51.668Z,20.33
2019-01-30T15:05:22.667Z,19.93
2019-01-30T15:07:51.721Z,17.03
2019-01-30T15:10:21.006Z,18.90
2019-01-30T15:12:50.117Z,17.00
2019-01-30T15:15:20.718Z,17.67
2019-01-30T15:17:49.491Z,15.10
2019-01-30T15:20:26.456Z,15.83
2019-01-30T15:22:56.353Z,19.20
2019-01-30T15:25:25.796Z,20.17
2019-01-30T15:27:54.475Z,19.20
2019-01-30T15:30:25.408Z,20.47
2019-01-30T15:32:54.345Z,17.60
2019-01-30T15:35:32.926Z,18.60
2019-01-30T15:37:53.553Z,18.40
2019-01-30T15:40:24.521Z,29.00
2019-01-30T15:42:53.289Z,20.87
2019-01-30T15:45:22.635Z,15.93
2019-01-30T15:47:51.571Z,20.87
2019-01-30T15:50:22.597Z,16.73
2019-01-30T15:52:51.781Z,19.00
2019-01-30T15:55:20.618Z,21.67
2019-01-30T15:57:52.024Z,19.37
2019-01-30T16:00:29.307Z,17.43
2019-01-30T16:02:56.852Z,18.33
2019-01-30T16:05:25.529Z,20.43
2019-01-30T16:07:54.205Z,17.53
2019-01-30T16:10:22.977Z,21.43
2019-01-30T16:12:51.662Z,29.60
2019-01-30T16:15:26.845Z,23.10
2019-01-30T16:17:55.597Z,23.60
2019-01-30T16:20:24.424Z,29.87
2019-01-30T16:22:53.169Z,29.33
2019-01-30T16:25:21.926Z,26.70
2019-01-30T16:27:50.584Z,22.10
2019-01-30T16:30:20.996Z,23.17
2019-01-30T16:32:49.744Z,22.07
2019-01-30T16:35:29.439Z,23.57
2019-01-30T16:37:58.253Z,26.63
2019-01-30T16:40:27.269Z,24.27
2019-01-30T16:42:55.934Z,26.70
2019-01-30T16:45:26.611Z,28.73
2019-01-30T16:47:55.348Z,23.63
2019-01-30T16:50:24.092Z,23.37
2019-01-30T16:52:53.053Z,28.03
2019-01-30T16:55:22.143Z,27.43
2019-01-30T16:57:51.771Z,29.17
2019-01-30T17:00:23.159Z,27.90
2019-01-30T17:02:51.824Z,31.27
2019-01-30T17:05:20.769Z,36.17
2019-01-30T17:07:49.563Z,30.23
2019-01-30T17:10:18.521Z,30.90
2019-01-30T17:12:47.414Z,27.50
2019-01-30T17:15:27.143Z,32.90
2019-01-30T17:17:55.817Z,28.67
2019-01-30T17:20:29.423Z,28.87
2019-01-30T17:22:58.104Z,43.43
2019-01-30T17:25:27.003Z,46.90
2019-01-30T17:27:55.699Z,45.33
2019-01-30T17:30:30.276Z,37.73
2019-01-30T17:32:58.962Z,36.53
2019-01-30T17:35:27.755Z,39.23
2019-01-30T17:37:56.511Z,40.63
2019-01-30T17:40:25.584Z,38.90
2019-01-30T17:42:54.271Z,36.67
2019-01-30T17:45:23.113Z,33.93
2019-01-30T17:47:52.038Z,58.13
2019-01-30T17:50:22.559Z,61.87
2019-01-30T17:52:51.284Z,53.07
2019-01-30T17:55:20.088Z,61.00
2019-01-30T17:57:48.760Z,53.90
2019-01-30T18:00:59.863Z,71.20
2019-01-30T18:03:28.540Z,54.53
2019-01-30T18:05:57.359Z,58.73
2019-01-30T18:08:26.026Z,50.67
2019-01-30T18:10:54.815Z,45.43
2019-01-30T18:13:23.573Z,57.23
2019-01-30T18:15:52.411Z,43.30
2019-01-30T18:18:21.185Z,47.87
2019-01-30T18:20:50.071Z,47.73
2019-01-30T18:23:18.769Z,46.90
2019-01-30T18:25:47.449Z,47.77
2019-01-30T18:28:16.152Z,46.65
2019-01-30T18:30:44.826Z,47.50
2019-01-30T18:33:13.517Z,43.07
2019-01-30T18:35:42.280Z,44.10
2019-01-30T18:38:11.101Z,48.67
2019-01-30T18:40:39.929Z,50.60
2019-01-30T18:43:08.571Z,43.93
2019-01-30T18:45:37.207Z,50.03
2019-01-30T18:48:06.287Z,46.70
2019-01-30T18:50:34.967Z,49.57
2019-01-30T18:53:03.702Z,53.73
2019-01-30T18:55:32.361Z,48.85
2019-01-30T18:58:01.101Z,51.00
2019-01-30T19:00:32.377Z,49.85
2019-01-30T19:03:02.351Z,54.27
2019-01-30T19:05:32.154Z,52.17
2019-01-30T19:08:00.898Z,57.50
2019-01-30T19:10:29.672Z,54.33
2019-01-30T19:12:58.513Z,46.97
2019-01-30T19:15:27.373Z,52.50
2019-01-30T19:17:56.061Z,59.53
2019-01-30T19:20:27.161Z,58.13
2019-01-30T19:22:55.875Z,59.25
2019-01-30T19:25:24.556Z,62.10
2019-01-30T19:27:56.031Z,57.20
2019-01-30T19:30:26.102Z,51.43
2019-01-30T19:32:54.941Z,58.78
2019-01-30T19:35:23.713Z,50.07
2019-01-30T19:37:52.756Z,54.07
2019-01-30T19:40:21.878Z,64.83
2019-01-30T19:42:50.650Z,57.77
2019-01-30T19:45:20.705Z,56.92
2019-01-30T19:47:49.410Z,60.90
2019-01-30T19:50:20.029Z,60.57
2019-01-30T19:52:48.781Z,64.67
2019-01-30T19:55:17.481Z,52.63
2019-01-30T19:57:46.215Z,71.80
2019-01-30T20:00:18.417Z,52.93
2019-01-30T20:02:47.265Z,62.40
2019-01-30T20:05:16.035Z,62.37
2019-01-30T20:07:44.789Z,57.33
2019-01-30T20:10:17.412Z,55.67
2019-01-30T20:12:46.197Z,62.83
2019-01-30T20:15:15.056Z,66.55
2019-01-30T20:17:43.729Z,71.23
2019-01-30T20:20:14.057Z,64.87
2019-01-30T20:22:42.890Z,68.25
2019-01-30T20:25:15.046Z,62.95
2019-01-30T20:27:43.729Z,68.83
2019-01-30T20:30:15.418Z,66.20
2019-01-30T20:32:44.089Z,64.33
2019-01-30T20:35:13.221Z,75.17
2019-01-30T20:37:41.985Z,70.70
2019-01-30T20:40:16.661Z,66.67
2019-01-30T20:42:45.333Z,74.90
2019-01-30T20:45:14.182Z,68.93
2019-01-30T20:47:42.937Z,65.23
2019-01-30T20:50:14.487Z,66.03
2019-01-30T20:52:43.229Z,62.70
2019-01-30T20:55:12.177Z,71.47
2019-01-30T20:57:41.039Z,72.47
2019-01-30T21:00:15.030Z,76.60
2019-01-30T21:03:02.986Z,69.95
2019-01-30T21:05:31.747Z,73.17
2019-01-30T21:08:00.496Z,76.57
2019-01-30T21:10:31.542Z,70.32
2019-01-30T21:13:00.209Z,78.83
2019-01-30T21:15:28.977Z,71.70
2019-01-30T21:17:57.712Z,74.77
2019-01-30T21:20:26.407Z,79.15
2019-01-30T21:22:55.148Z,81.03
2019-01-30T21:25:23.864Z,73.07
2019-01-30T21:27:52.776Z,75.10
